Time;durP1;ratioP1;P1;durP2;ratioP2;P2;SDS_P1;SDS_P2;PMS_P1;PMS_P2;Temp;Humidity;BMP_temperature;BMP_pressure;BME280_temperature;BME280_humidity;BME280_pressure;Samples;Min_cycle;Max_cycle;Signal;HPM_P1;HPM_P2
2022/03/04 00:01:43;;;;;;;102.03;34.43;;;;;;;-0.27;83.87;101560.88;5030049;28;20229;-69
2022/03/04 00:04:10;;;;;;;113.33;37.67;;;;;;;-0.29;83.84;101560.00;5013621;28;20235;-70
2022/03/04 00:06:36;;;;;;;102.47;34.50;;;;;;;-0.31;83.91;101556.50;5018107;28;20226;-69
2022/03/04 00:09:03;;;;;;;98.77;34.37;;;;;;;-0.32;84.10;101552.16;5027399;28;20698;-70
2022/03/04 00:11:29;;;;;;;113.93;38.20;;;;;;;-0.31;84.30;101553.03;5022519;28;20217;-69
2022/03/04 00:13:57;;;;;;;97.57;34.73;;;;;;;-0.30;84.44;101554.75;5012591;28;20477;-69
2022/03/04 00:16:25;;;;;;;94.70;33.00;;;;;;;-0.30;84.48;101550.41;5021665;28;20211;-69
2022/03/04 00:19:06;;;;;;;87.87;33.43;;;;;;;-0.30;84.52;101550.41;5020876;28;20511;-69
2022/03/04 00:21:33;;;;;;;89.90;31.40;;;;;;;-0.30;84.55;101547.78;5018407;28;20211;-70
2022/03/04 00:24:00;;;;;;;90.67;33.83;;;;;;;-0.30;84.54;101555.63;5023431;28;20202;-70
2022/03/04 00:26:26;;;;;;;92.83;35.80;;;;;;;-0.27;84.47;101558.25;5026865;28;20217;-70
2022/03/04 00:28:53;;;;;;;87.47;34.47;;;;;;;-0.27;84.54;101560.00;5034872;28;20210;-70
2022/03/04 00:31:21;;;;;;;85.63;32.90;;;;;;;-0.25;84.49;101566.09;5033742;28;20211;-70
2022/03/04 00:33:48;;;;;;;84.43;32.83;;;;;;;-0.23;84.58;101564.34;5024201;28;20625;-71
2022/03/04 00:36:14;;;;;;;90.50;33.70;;;;;;;-0.21;84.77;101567.81;5028177;28;20625;-70
2022/03/04 00:38:41;;;;;;;83.30;32.87;;;;;;;-0.22;84.66;101566.94;5012865;28;20611;-70
2022/03/04 00:41:07;;;;;;;73.63;29.23;;;;;;;-0.23;84.85;101567.84;5026482;28;20242;-70
2022/03/04 00:43:34;;;;;;;79.27;28.17;;;;;;;-0.26;84.64;101562.59;5013253;28;20210;-68
2022/03/04 00:46:00;;;;;;;78.93;31.50;;;;;;;-0.25;84.91;101571.31;5013246;28;20696;-70
2022/03/04 00:48:28;;;;;;;75.13;29.87;;;;;;;-0.23;85.00;101566.97;5025870;28;20234;-70
2022/03/04 00:50:55;;;;;;;77.83;28.87;;;;;;;-0.23;84.85;101573.06;5030234;28;20312;-71
2022/03/04 00:53:21;;;;;;;78.93;30.20;;;;;;;-0.21;84.70;101568.69;5032766;28;20206;-68
2022/03/04 00:55:48;;;;;;;84.37;32.73;;;;;;;-0.19;84.65;101568.69;5013072;28;20587;-70
2022/03/04 00:58:14;;;;;;;69.87;27.70;;;;;;;-0.17;84.83;101562.53;5015717;28;20601;-70
2022/03/04 01:00:41;;;;;;;72.87;30.07;;;;;;;-0.16;84.78;101568.66;5025106;28;20226;-68
2022/03/04 01:03:07;;;;;;;72.53;29.17;;;;;;;-0.20;84.98;101567.81;5026284;28;20211;-69
2022/03/04 01:05:35;;;;;;;61.00;25.73;;;;;;;-0.21;84.59;101571.31;5030049;28;20210;-71
2022/03/04 01:08:01;;;;;;;70.37;28.70;;;;;;;-0.23;84.84;101578.31;5032151;28;20226;-70
2022/03/04 01:10:28;;;;;;;55.47;23.17;;;;;;;-0.22;84.62;101571.31;5024370;28;20202;-70
2022/03/04 01:12:55;;;;;;;67.03;27.50;;;;;;;-0.24;85.00;101563.47;5027426;28;20207;-70
2022/03/04 01:15:21;;;;;;;79.63;28.77;;;;;;;-0.23;85.10;101569.56;5018337;28;20672;-70
2022/03/04 01:17:48;;;;;;;72.73;28.40;;;;;;;-0.21;84.98;101580.91;5013342;28;20229;-70
2022/03/04 01:20:15;;;;;;;83.13;31.13;;;;;;;-0.21;84.71;101575.69;5026739;28;20230;-71
2022/03/04 01:22:43;;;;;;;75.17;29.30;;;;;;;-0.18;85.14;101573.06;5024790;28;20202;-70
2022/03/04 01:25:10;;;;;;;81.27;32.77;;;;;;;-0.17;85.00;101565.16;5016781;28;20234;-70
2022/03/04 01:27:37;;;;;;;82.47;33.07;;;;;;;-0.14;84.89;101561.66;5168708;22;20225;-69
2022/03/04 01:30:05;;;;;;;75.67;32.23;;;;;;;-0.10;84.99;101564.25;5071651;28;20201;-69
2022/03/04 01:32:31;;;;;;;84.80;31.23;;;;;;;-0.07;84.88;101558.16;5072145;28;20212;-69
2022/03/04 01:34:58;;;;;;;70.77;30.00;;;;;;;-0.08;84.84;101564.25;5070400;28;20209;-70
2022/03/04 01:37:25;;;;;;;70.93;28.93;;;;;;;-0.13;85.04;101559.03;5070664;28;20232;-67
2022/03/04 01:39:52;;;;;;;72.97;29.40;;;;;;;-0.12;85.11;101549.44;5056266;28;20230;-68
2022/03/04 01:42:19;;;;;;;71.63;27.93;;;;;;;-0.11;84.77;101544.19;5071542;28;20200;-69
2022/03/04 01:44:46;;;;;;;69.00;26.83;;;;;;;-0.11;85.01;101540.72;5066094;28;20197;-69
2022/03/04 01:47:13;;;;;;;76.47;29.97;;;;;;;-0.12;84.87;101546.81;5060196;28;20233;-69
2022/03/04 01:49:41;;;;;;;71.93;28.40;;;;;;;-0.13;84.87;101540.72;5066614;28;20624;-69
2022/03/04 01:52:08;;;;;;;79.63;30.43;;;;;;;-0.09;84.72;101544.19;5067346;28;20213;-69
2022/03/04 01:54:35;;;;;;;70.47;27.43;;;;;;;-0.07;84.48;101538.06;5068052;28;20207;-68
2022/03/04 01:57:03;;;;;;;66.50;26.50;;;;;;;-0.06;84.62;101538.94;5068468;28;20244;-68
2022/03/04 01:59:30;;;;;;;65.50;26.83;;;;;;;-0.05;84.69;101546.78;5065928;28;20594;-68
2022/03/04 02:01:56;;;;;;;61.90;26.70;;;;;;;-0.05;84.75;101540.69;5066670;28;20208;-69
2022/03/04 02:04:23;;;;;;;59.13;25.77;;;;;;;-0.01;84.70;101542.41;5056110;28;20299;-69
2022/03/04 02:06:50;;;;;;;57.73;24.30;;;;;;;-0.01;84.70;101542.41;5063258;28;20201;-69
2022/03/04 02:09:17;;;;;;;54.50;23.77;;;;;;;0.00;84.45;101547.63;5063528;28;20205;-68
2022/03/04 02:11:44;;;;;;;55.93;25.83;;;;;;;0.03;84.30;101551.09;5063401;28;20196;-69
2022/03/04 02:14:12;;;;;;;56.03;25.07;;;;;;;0.06;84.21;101556.31;5068718;28;20201;-68
2022/03/04 02:16:42;;;;;;;49.27;23.10;;;;;;;0.08;84.45;101546.72;5065685;28;20676;-68
2022/03/04 02:19:09;;;;;;;47.77;22.00;;;;;;;0.09;84.36;101551.06;5062125;28;20208;-68
2022/03/04 02:21:35;;;;;;;46.27;20.97;;;;;;;0.11;84.37;101536.22;5064247;28;20235;-69
2022/03/04 02:24:04;;;;;;;47.70;20.90;;;;;;;0.14;84.22;101546.69;5071017;28;20212;-69
2022/03/04 02:26:30;;;;;;;49.83;22.27;;;;;;;0.13;83.97;101537.94;5067399;28;20213;-69
2022/03/04 02:28:57;;;;;;;45.67;22.63;;;;;;;0.14;84.15;101541.44;5058139;28;20237;-66
2022/03/04 02:31:23;;;;;;;42.23;21.23;;;;;;;0.13;84.07;101539.69;5070030;28;20215;-69
2022/03/04 02:33:50;;;;;;;48.03;22.20;;;;;;;0.13;84.05;101535.34;5070082;28;20205;-69
2022/03/04 02:36:17;;;;;;;48.20;21.27;;;;;;;0.13;84.00;101527.47;5056553;28;20219;-69
2022/03/04 02:38:44;;;;;;;45.47;21.63;;;;;;;0.15;83.93;101530.09;5060606;28;20234;-69
2022/03/04 02:41:12;;;;;;;44.60;22.20;;;;;;;0.17;83.78;101531.81;5060752;28;20252;-68
2022/03/04 02:43:38;;;;;;;38.10;20.10;;;;;;;0.18;83.82;101527.44;5057587;28;20220;-69
2022/03/04 02:46:05;;;;;;;41.17;21.13;;;;;;;0.17;83.76;101529.19;5059638;28;20201;-69
2022/03/04 02:48:31;;;;;;;40.10;20.30;;;;;;;0.18;83.62;101524.84;5059229;28;20228;-69
2022/03/04 02:50:58;;;;;;;40.10;20.77;;;;;;;0.17;83.66;101536.19;5066099;28;20212;-69
2022/03/04 02:53:24;;;;;;;43.90;20.67;;;;;;;0.19;83.38;101537.03;5069795;28;20213;-69
2022/03/04 02:55:51;;;;;;;39.90;20.33;;;;;;;0.21;83.67;101541.38;5067407;28;20229;-69
2022/03/04 02:58:19;;;;;;;40.43;19.97;;;;;;;0.22;83.74;101534.38;5060004;28;20226;-70
2022/03/04 03:00:45;;;;;;;46.83;22.63;;;;;;;0.23;83.43;101530.88;5055002;28;20224;-68
2022/03/04 03:03:12;;;;;;;45.63;24.10;;;;;;;0.24;83.40;101540.50;5062458;28;20300;-69
2022/03/04 03:05:38;;;;;;;44.90;21.90;;;;;;;0.26;83.47;101536.13;5050194;28;20221;-67
2022/03/04 03:08:05;;;;;;;53.03;24.37;;;;;;;0.27;83.20;101540.47;5064480;28;20375;-69
2022/03/04 03:10:32;;;;;;;43.03;22.37;;;;;;;0.30;83.16;101538.72;5062910;28;20209;-69
2022/03/04 03:12:59;;;;;;;43.07;22.97;;;;;;;0.32;83.24;101543.94;5065550;28;20201;-69
2022/03/04 03:15:28;;;;;;;50.33;24.13;;;;;;;0.33;83.04;101551.78;5059554;28;20216;-69
2022/03/04 03:17:55;;;;;;;55.60;25.97;;;;;;;0.36;82.84;101542.19;5049881;28;20233;-69
2022/03/04 03:20:21;;;;;;;61.20;25.20;;;;;;;0.34;83.04;101543.06;5050080;28;20244;-69
2022/03/04 03:22:48;;;;;;;57.60;26.47;;;;;;;0.31;82.77;101540.44;5050504;28;20217;-68
2022/03/04 03:25:15;;;;;;;60.57;28.20;;;;;;;0.30;82.74;101537.84;5052162;28;20220;-70
2022/03/04 03:27:42;;;;;;;61.73;25.20;;;;;;;0.30;82.53;101543.06;5049501;28;20240;-69
2022/03/04 03:30:10;;;;;;;53.83;26.03;;;;;;;0.30;82.56;101554.44;5065910;28;20201;-67
2022/03/04 03:32:38;;;;;;;59.97;27.20;;;;;;;0.28;82.42;101543.09;5058767;28;20201;-69
2022/03/04 03:35:07;;;;;;;59.20;25.80;;;;;;;0.31;82.37;101537.81;5055656;28;20212;-68
2022/03/04 03:37:33;;;;;;;56.40;25.83;;;;;;;0.31;82.33;101539.56;5049265;28;20233;-68
2022/03/04 03:40:00;;;;;;;54.13;24.60;;;;;;;0.32;82.22;101550.06;5053920;28;20677;-68
2022/03/04 03:42:26;;;;;;;58.87;24.97;;;;;;;0.31;82.22;101532.59;5068558;28;20208;-69
2022/03/04 03:44:53;;;;;;;70.07;28.73;;;;;;;0.32;82.05;101531.72;5063089;28;20209;-69
2022/03/04 03:47:19;;;;;;;58.20;24.60;;;;;;;0.34;82.05;101539.56;5065210;28;20572;-67
2022/03/04 03:49:47;;;;;;;56.03;23.77;;;;;;;0.36;82.02;101532.53;5063984;28;20212;-68
2022/03/04 03:52:14;;;;;;;57.30;24.07;;;;;;;0.34;81.95;101529.09;5068139;28;20526;-68
2022/03/04 03:54:40;;;;;;;57.20;25.10;;;;;;;0.34;82.11;101534.31;5058309;28;20206;-69
2022/03/04 03:57:07;;;;;;;65.60;28.07;;;;;;;0.30;81.85;101538.72;5061616;28;20232;-68
2022/03/04 03:59:34;;;;;;;61.40;26.00;;;;;;;0.29;81.73;101536.97;5062042;28;20209;-69
2022/03/04 04:02:02;;;;;;;66.00;27.97;;;;;;;0.29;81.73;101533.47;5057199;28;20240;-68
2022/03/04 04:04:33;;;;;;;51.27;21.20;;;;;;;0.27;81.48;101533.47;5064513;28;20210;-68
2022/03/04 04:07:02;;;;;;;54.83;24.13;;;;;;;0.27;81.90;101536.09;5069520;28;20221;-69
2022/03/04 04:09:28;;;;;;;58.03;25.37;;;;;;;0.27;81.57;101530.00;5054728;28;20641;-68
2022/03/04 04:11:55;;;;;;;62.00;26.20;;;;;;;0.28;81.61;101523.88;5071430;28;20211;-67
2022/03/04 04:14:21;;;;;;;56.30;26.17;;;;;;;0.28;81.81;101534.34;5071175;28;20211;-69
2022/03/04 04:16:48;;;;;;;53.70;25.17;;;;;;;0.28;81.56;101539.59;5069624;28;20197;-68
2022/03/04 04:19:14;;;;;;;57.20;24.63;;;;;;;0.30;81.62;101540.47;5067021;28;20212;-66
2022/03/04 04:21:41;;;;;;;43.83;21.07;;;;;;;0.27;81.42;101546.59;5061894;28;20614;-68
2022/03/04 04:24:09;;;;;;;41.37;19.50;;;;;;;0.25;81.66;101556.19;5053343;28;20213;-69
2022/03/04 04:26:36;;;;;;;39.17;19.17;;;;;;;0.24;81.50;101550.97;5062089;28;20212;-69
2022/03/04 04:29:03;;;;;;;40.63;19.00;;;;;;;0.25;81.45;101555.34;5065086;28;20681;-69
2022/03/04 04:31:31;;;;;;;49.93;21.33;;;;;;;0.25;81.30;101565.81;5063314;28;20201;-68
2022/03/04 04:33:58;;;;;;;53.20;24.10;;;;;;;0.25;81.33;101560.56;5068610;28;20624;-68
2022/03/04 04:36:24;;;;;;;51.70;23.27;;;;;;;0.27;81.20;101562.31;5058905;28;20209;-69
2022/03/04 04:38:51;;;;;;;49.43;22.47;;;;;;;0.27;81.47;101554.44;5068730;28;20251;-68
2022/03/04 04:41:19;;;;;;;54.90;25.33;;;;;;;0.28;81.16;101557.94;5059328;28;20235;-68
2022/03/04 04:43:45;;;;;;;42.20;20.13;;;;;;;0.26;80.93;101563.19;5059815;28;20205;-68
2022/03/04 04:46:12;;;;;;;29.43;14.70;;;;;;;0.28;81.28;101557.94;5064836;28;20205;-68
2022/03/04 04:48:39;;;;;;;26.57;12.77;;;;;;;0.29;81.25;101567.53;5068769;28;20223;-68
2022/03/04 04:51:06;;;;;;;22.40;12.27;;;;;;;0.29;81.21;101571.03;5064347;28;20562;-68
2022/03/04 04:53:34;;;;;;;18.03;10.23;;;;;;;0.26;81.16;101565.81;5066990;28;20213;-68
2022/03/04 04:56:01;;;;;;;25.40;13.20;;;;;;;0.24;80.73;101561.44;5068992;28;20942;-67
2022/03/04 04:58:29;;;;;;;38.47;17.30;;;;;;;0.23;80.74;101555.34;5065672;28;20232;-67
2022/03/04 05:00:55;;;;;;;34.23;17.40;;;;;;;0.21;80.81;101553.59;5060346;28;20222;-66
2022/03/04 05:03:22;;;;;;;34.17;18.90;;;;;;;0.17;80.57;101559.75;5061966;28;20235;-69
2022/03/04 05:05:49;;;;;;;35.80;17.43;;;;;;;0.16;80.66;101550.16;5065902;28;20204;-68
2022/03/04 05:08:16;;;;;;;33.63;17.57;;;;;;;0.14;80.75;101552.78;5061987;28;20224;-69
2022/03/04 05:10:43;;;;;;;36.17;16.73;;;;;;;0.14;80.84;101551.91;5062187;28;20693;-69
2022/03/04 05:13:09;;;;;;;34.07;16.30;;;;;;;0.14;80.65;101552.78;5061122;28;20205;-68
2022/03/04 05:15:38;;;;;;;32.93;16.53;;;;;;;0.14;80.69;101557.16;5063382;28;20216;-69
2022/03/04 05:18:04;;;;;;;42.97;18.13;;;;;;;0.13;80.23;101560.66;5067393;28;20225;-69
2022/03/04 05:20:31;;;;;;;41.90;19.33;;;;;;;0.12;80.42;101562.41;5069030;28;20212;-69
2022/03/04 05:22:58;;;;;;;38.03;19.50;;;;;;;0.09;80.41;101558.94;5060957;28;20201;-69
2022/03/04 05:25:24;;;;;;;46.50;21.13;;;;;;;0.04;80.40;101564.19;5055697;28;20201;-69
2022/03/04 05:27:51;;;;;;;45.53;19.53;;;;;;;0.00;80.15;101552.84;5059170;28;20550;-68
2022/03/04 05:30:17;;;;;;;38.47;18.97;;;;;;;-0.02;80.39;101554.63;5060998;28;20270;-69
2022/03/04 05:32:45;;;;;;;33.83;17.13;;;;;;;-0.01;80.04;101565.97;5060425;28;20209;-68
2022/03/04 05:35:12;;;;;;;32.43;16.73;;;;;;;-0.03;80.35;101566.00;5059718;28;20205;-69
2022/03/04 05:37:39;;;;;;;34.67;18.47;;;;;;;-0.04;80.44;101571.22;5056530;28;20217;-69
2022/03/04 05:40:07;;;;;;;34.00;16.60;;;;;;;-0.06;80.39;101570.38;5058959;28;20210;-69
2022/03/04 05:42:34;;;;;;;31.77;14.90;;;;;;;-0.07;80.55;101566.00;5058729;28;20232;-69
2022/03/04 05:45:00;;;;;;;32.10;16.03;;;;;;;-0.10;80.51;101579.09;5061993;28;20694;-68
2022/03/04 05:47:27;;;;;;;25.23;13.07;;;;;;;-0.12;80.60;101570.38;5055317;28;20737;-68
2022/03/04 05:49:55;;;;;;;22.17;12.37;;;;;;;-0.12;80.55;101568.63;5055192;28;20687;-69
2022/03/04 05:52:21;;;;;;;22.67;11.87;;;;;;;-0.14;80.51;101573.00;5053226;28;20201;-66
2022/03/04 05:54:48;;;;;;;27.47;13.97;;;;;;;-0.14;80.48;101561.66;5056057;28;20196;-69
2022/03/04 05:57:14;;;;;;;31.00;14.67;;;;;;;-0.15;80.75;101571.25;5057234;28;20705;-67
2022/03/04 05:59:41;;;;;;;38.13;18.40;;;;;;;-0.17;80.57;101578.25;5058365;28;20209;-66
2022/03/04 06:02:07;;;;;;;44.27;20.67;;;;;;;-0.18;80.49;101573.06;5057437;28;20720;-66
2022/03/04 06:04:34;;;;;;;49.33;21.00;;;;;;;-0.19;80.60;101587.03;5054017;28;20735;-66
2022/03/04 06:07:02;;;;;;;55.17;23.33;;;;;;;-0.20;80.76;101587.91;5060331;28;20220;-67
2022/03/04 06:09:28;;;;;;;44.53;20.40;;;;;;;-0.22;80.51;101593.13;5055682;28;20205;-68
2022/03/04 06:11:56;;;;;;;46.67;20.27;;;;;;;-0.23;80.71;101599.25;5059866;28;20216;-67
2022/03/04 06:14:23;;;;;;;36.60;17.57;;;;;;;-0.23;80.78;101594.00;5052683;28;20210;-67
2022/03/04 06:16:49;;;;;;;49.33;17.90;;;;;;;-0.23;80.68;101593.13;5059438;28;20200;-66
2022/03/04 06:19:16;;;;;;;35.43;16.03;;;;;;;-0.23;80.69;101607.09;5058879;28;20682;-67
2022/03/04 06:21:42;;;;;;;35.17;15.50;;;;;;;-0.23;80.91;101594.00;5053847;28;20317;-67
2022/03/04 06:24:10;;;;;;;34.37;14.37;;;;;;;-0.23;80.89;101599.25;5063090;28;20211;-67
2022/03/04 06:26:37;;;;;;;33.37;15.17;;;;;;;-0.22;81.12;101597.50;5055444;28;20700;-66
2022/03/04 06:29:03;;;;;;;36.10;17.07;;;;;;;-0.22;81.15;101584.41;5059003;28;20213;-69
2022/03/04 06:31:30;;;;;;;41.70;17.63;;;;;;;-0.23;81.13;101604.47;5059512;28;20856;-69
2022/03/04 06:33:56;;;;;;;50.93;24.17;;;;;;;-0.22;81.26;101592.25;5055976;28;20221;-70
2022/03/04 06:36:23;;;;;;;47.77;20.10;;;;;;;-0.21;81.28;101599.25;5059462;28;20666;-70
2022/03/04 06:38:50;;;;;;;45.43;21.27;;;;;;;-0.22;81.11;101613.19;5059848;28;20232;-68
2022/03/04 06:41:18;;;;;;;47.57;19.77;;;;;;;-0.23;81.16;101608.84;5056032;28;20278;-68
2022/03/04 06:43:45;;;;;;;45.00;18.53;;;;;;;-0.22;81.39;101605.34;5055579;28;20211;-70
2022/03/04 06:46:11;;;;;;;39.73;17.03;;;;;;;-0.23;81.18;101607.09;5056502;28;20284;-70
2022/03/04 06:48:38;;;;;;;52.63;21.70;;;;;;;-0.21;81.42;101614.94;5050961;28;20226;-67
2022/03/04 06:51:05;;;;;;;50.27;20.20;;;;;;;-0.20;81.39;101608.84;5050882;28;20201;-70
2022/03/04 06:53:31;;;;;;;39.47;16.93;;;;;;;-0.20;81.42;101614.94;5054098;28;20208;-68
2022/03/04 06:55:58;;;;;;;48.57;19.90;;;;;;;-0.21;81.48;101612.34;5052618;28;20655;-68
2022/03/04 06:58:26;;;;;;;45.47;19.13;;;;;;;-0.25;81.25;101619.31;5054782;28;20229;-69
2022/03/04 07:00:53;;;;;;;51.77;21.73;;;;;;;-0.27;81.29;101628.91;5061709;28;20216;-69
2022/03/04 07:03:19;;;;;;;55.90;21.73;;;;;;;-0.28;81.45;101632.41;5050723;28;20229;-70
2022/03/04 07:05:46;;;;;;;46.77;19.70;;;;;;;-0.28;81.43;101627.19;5052772;28;20210;-69
2022/03/04 07:08:13;;;;;;;47.00;19.33;;;;;;;-0.29;81.13;101625.44;5051387;28;20235;-69
2022/03/04 07:10:40;;;;;;;47.00;20.37;;;;;;;-0.28;81.52;101628.91;5050768;28;20213;-69
2022/03/04 07:13:07;;;;;;;44.63;18.53;;;;;;;-0.25;81.16;101637.63;5055843;28;20206;-68
2022/03/04 07:15:35;;;;;;;51.70;19.77;;;;;;;-0.25;81.19;101639.38;5054584;28;20258;-69
2022/03/04 07:18:02;;;;;;;48.37;20.63;;;;;;;-0.25;81.14;101639.38;5064525;28;20734;-68
2022/03/04 07:20:28;;;;;;;46.83;19.53;;;;;;;-0.25;81.09;101642.88;5065231;28;20208;-69
2022/03/04 07:22:55;;;;;;;44.87;17.23;;;;;;;-0.27;81.21;101639.38;5060154;28;20297;-69
2022/03/04 07:25:22;;;;;;;47.67;18.73;;;;;;;-0.26;81.00;101646.38;5067227;28;20217;-69
2022/03/04 07:27:48;;;;;;;54.27;20.70;;;;;;;-0.26;80.99;101649.00;5087506;22;20238;-70
2022/03/04 07:30:17;;;;;;;34.43;15.37;;;;;;;-0.20;81.24;101651.59;5075728;28;20208;-70
2022/03/04 07:32:46;;;;;;;40.83;16.80;;;;;;;-0.17;81.52;101661.16;5081700;28;20219;-68
2022/03/04 07:35:13;;;;;;;40.30;15.50;;;;;;;-0.12;81.37;101649.81;5078457;28;20196;-70
2022/03/04 07:37:42;;;;;;;32.50;15.00;;;;;;;-0.08;80.99;101659.41;5072179;28;20281;-70
2022/03/04 07:40:11;;;;;;;29.47;13.97;;;;;;;-0.04;81.26;101662.88;5061074;28;20205;-70
2022/03/04 07:42:37;;;;;;;33.00;14.37;;;;;;;-0.02;81.17;101662.00;5069846;28;20323;-67
2022/03/04 07:45:06;;;;;;;32.20;14.07;;;;;;;0.00;80.92;101659.38;5061533;28;20205;-69
2022/03/04 07:47:33;;;;;;;32.80;14.40;;;;;;;0.03;80.83;101666.31;5061731;28;20225;-71
2022/03/04 07:50:01;;;;;;;30.90;14.27;;;;;;;0.04;80.73;101673.31;5061615;28;20211;-70
2022/03/04 07:52:31;;;;;;;29.53;14.17;;;;;;;0.06;80.79;101679.41;5065704;28;20679;-70
2022/03/04 07:54:58;;;;;;;30.03;14.83;;;;;;;0.05;80.43;101675.94;5069208;28;20213;-71
2022/03/04 07:57:25;;;;;;;30.97;13.93;;;;;;;0.08;80.08;101672.44;5067706;28;20739;-69
2022/03/04 07:59:51;;;;;;;30.00;13.33;;;;;;;0.09;80.05;101669.81;5064495;28;20201;-69
2022/03/04 08:02:18;;;;;;;25.93;12.97;;;;;;;0.11;80.19;101682.91;5067393;28;20721;-70
2022/03/04 08:04:45;;;;;;;28.53;13.23;;;;;;;0.12;80.16;101679.41;5065547;28;20201;-72
2022/03/04 08:07:14;;;;;;;33.23;14.67;;;;;;;0.12;80.10;101676.78;5065545;28;20205;-70
2022/03/04 08:09:40;;;;;;;31.47;14.67;;;;;;;0.13;80.50;101678.53;5067637;28;20671;-69
2022/03/04 08:12:09;;;;;;;30.50;13.73;;;;;;;0.15;79.90;101684.63;5066567;28;20220;-70
2022/03/04 08:14:35;;;;;;;26.17;11.70;;;;;;;0.18;79.69;101690.69;5067881;28;20288;-68
2022/03/04 08:17:02;;;;;;;25.60;13.33;;;;;;;0.17;79.58;101689.00;5064999;28;20224;-68
2022/03/04 08:19:29;;;;;;;20.03;10.80;;;;;;;0.21;79.83;101684.59;5062854;28;20585;-69
2022/03/04 08:21:55;;;;;;;21.67;11.67;;;;;;;0.23;79.90;101677.59;5067664;28;20220;-69
2022/03/04 08:24:23;;;;;;;20.37;10.60;;;;;;;0.25;79.57;101686.31;5070129;28;20207;-70
2022/03/04 08:26:49;;;;;;;23.77;11.40;;;;;;;0.28;79.73;101687.19;5069171;28;20728;-70
2022/03/04 08:29:16;;;;;;;24.90;11.27;;;;;;;0.32;79.66;101682.81;5069334;28;20244;-70
2022/03/04 08:31:42;;;;;;;22.83;11.47;;;;;;;0.37;79.36;101688.00;5069183;28;20212;-70
2022/03/04 08:34:09;;;;;;;25.27;12.90;;;;;;;0.41;79.42;101682.75;5069588;28;20676;-70
2022/03/04 08:36:36;;;;;;;29.47;12.67;;;;;;;0.43;79.41;101681.00;5069001;28;20212;-70
2022/03/04 08:39:05;;;;;;;22.70;11.30;;;;;;;0.48;79.48;101683.59;5069649;28;20229;-71
2022/03/04 08:41:33;;;;;;;32.40;14.67;;;;;;;0.50;79.18;101677.47;5069639;28;20216;-69
2022/03/04 08:44:00;;;;;;;34.57;16.43;;;;;;;0.54;79.04;101673.94;5071167;28;20312;-69
2022/03/04 08:46:27;;;;;;;25.90;12.40;;;;;;;0.52;78.86;101686.19;5072752;28;20227;-70
2022/03/04 08:48:54;;;;;;;29.30;14.27;;;;;;;0.51;78.65;101691.44;5072660;28;20726;-70
2022/03/04 08:51:24;;;;;;;24.33;11.83;;;;;;;0.55;78.83;101691.41;5073220;28;20223;-70
2022/03/04 08:53:51;;;;;;;29.83;13.43;;;;;;;0.59;79.03;101684.38;5072673;28;20209;-69
2022/03/04 08:56:18;;;;;;;22.77;10.63;;;;;;;0.63;78.61;101683.50;5072533;28;20213;-68
2022/03/04 08:58:46;;;;;;;21.40;11.40;;;;;;;0.65;78.59;101698.34;5072697;28;20299;-70
2022/03/04 09:01:12;;;;;;;23.77;11.83;;;;;;;0.71;78.81;101707.06;5072697;28;20224;-71
2022/03/04 09:03:39;;;;;;;28.97;14.20;;;;;;;0.72;78.44;101698.31;5072505;28;20723;-70
2022/03/04 09:06:05;;;;;;;24.07;12.80;;;;;;;0.76;78.44;101697.41;5072734;28;20584;-68
2022/03/04 09:08:32;;;;;;;22.03;11.83;;;;;;;0.80;78.50;101693.88;5072658;28;20319;-70
2022/03/04 09:10:59;;;;;;;15.60;9.13;;;;;;;0.82;78.47;101695.63;5071983;28;20205;-69
2022/03/04 09:13:25;;;;;;;20.17;10.00;;;;;;;0.86;78.31;101701.72;5072421;28;20220;-71
2022/03/04 09:15:53;;;;;;;15.13;8.70;;;;;;;0.92;78.21;101699.91;5072579;28;20239;-70
2022/03/04 09:18:19;;;;;;;14.07;8.50;;;;;;;0.98;78.25;101705.13;5071425;28;20247;-71
2022/03/04 09:20:46;;;;;;;12.77;8.27;;;;;;;1.03;78.20;101699.84;5073598;28;20686;-70
2022/03/04 09:23:13;;;;;;;15.30;9.27;;;;;;;1.06;78.12;101699.81;5072161;28;20229;-69
2022/03/04 09:25:39;;;;;;;17.60;8.77;;;;;;;1.12;77.68;101694.50;5072406;28;20216;-68
2022/03/04 09:28:06;;;;;;;13.13;7.63;;;;;;;1.18;77.57;101697.09;5071901;28;20243;-70
2022/03/04 09:30:33;;;;;;;11.90;7.37;;;;;;;1.23;77.77;101697.06;5071424;28;20217;-70
2022/03/04 09:33:01;;;;;;;11.17;7.77;;;;;;;1.30;77.24;101701.34;5072350;28;20209;-70
2022/03/04 09:35:27;;;;;;;13.00;7.83;;;;;;;1.33;77.12;101701.34;5072371;28;20212;-70
2022/03/04 09:37:54;;;;;;;18.60;8.33;;;;;;;1.35;76.95;101695.19;5072090;28;20232;-70
2022/03/04 09:40:21;;;;;;;14.00;8.27;;;;;;;1.38;77.27;101705.66;5071547;28;20307;-70
2022/03/04 09:42:47;;;;;;;17.60;9.27;;;;;;;1.42;76.64;101703.91;5072199;28;20233;-70
2022/03/04 09:45:14;;;;;;;25.47;12.60;;;;;;;1.47;77.19;101711.69;5071596;28;20205;-70
2022/03/04 09:47:42;;;;;;;22.03;12.17;;;;;;;1.52;77.21;101705.53;5072181;28;20225;-70
2022/03/04 09:50:13;;;;;;;18.87;10.07;;;;;;;1.59;76.84;101711.63;5071612;28;20209;-69
2022/03/04 09:52:40;;;;;;;16.57;9.60;;;;;;;1.64;76.68;101717.66;5072195;28;20295;-71
2022/03/04 09:55:07;;;;;;;12.27;7.57;;;;;;;1.66;76.45;101713.28;5070163;28;20208;-71
2022/03/04 09:57:33;;;;;;;12.87;7.90;;;;;;;1.71;75.77;101722.00;5071778;28;20240;-70
2022/03/04 10:00:00;;;;;;;13.77;8.50;;;;;;;1.77;76.01;101729.81;5071638;28;20696;-69
2022/03/04 10:02:26;;;;;;;14.83;8.53;;;;;;;1.80;76.07;101719.25;5071167;28;20619;-70
2022/03/04 10:05:00;;;;;;;15.47;9.13;;;;;;;1.82;76.10;101724.50;5072070;28;20212;-70
2022/03/04 10:07:37;;;;;;;16.07;9.10;;;;;;;1.86;75.51;101729.72;5070733;28;20244;-70
2022/03/04 10:10:10;;;;;;;18.47;10.77;;;;;;;1.91;75.90;101725.28;5071323;28;20208;-70
2022/03/04 10:12:46;;;;;;;14.87;9.30;;;;;;;1.95;75.03;101727.00;5071901;28;20496;-70
2022/03/04 10:15:13;;;;;;;16.50;8.93;;;;;;;1.97;74.84;101727.81;5071041;28;20674;-70
2022/03/04 10:17:40;;;;;;;16.23;10.20;;;;;;;1.98;75.16;101729.56;5071175;28;20233;-70
2022/03/04 10:20:12;;;;;;;13.43;8.83;;;;;;;2.01;75.02;101723.41;5070830;28;20682;-71
2022/03/04 10:22:43;;;;;;;13.80;8.13;;;;;;;2.04;74.55;101726.00;5071179;28;20232;-70
2022/03/04 10:25:18;;;;;;;20.67;13.63;;;;;;;2.07;74.87;101729.47;5070946;28;20208;-70
2022/03/04 10:27:45;;;;;;;23.80;14.23;;;;;;;2.11;75.00;101726.81;5070774;28;20731;-69
2022/03/04 10:30:12;;;;;;;26.93;13.90;;;;;;;2.16;74.87;101720.59;5070512;28;20212;-68
2022/03/04 10:32:39;;;;;;;26.37;14.10;;;;;;;2.19;74.82;101717.06;5071202;28;20201;-70
2022/03/04 10:35:07;;;;;;;20.57;12.40;;;;;;;2.21;73.88;101724.06;5071228;28;20208;-68
2022/03/04 10:37:44;;;;;;;23.07;13.93;;;;;;;2.23;74.47;101719.66;5070692;28;20608;-70
2022/03/04 10:40:13;;;;;;;23.70;14.07;;;;;;;2.22;73.67;101724.94;5070243;28;20219;-67
2022/03/04 10:42:48;;;;;;;19.80;12.93;;;;;;;2.22;73.16;101717.91;5070693;28;20759;-70
2022/03/04 10:45:18;;;;;;;28.17;14.37;;;;;;;2.25;73.34;101714.38;5070364;28;20224;-70
2022/03/04 10:47:49;;;;;;;30.77;17.07;;;;;;;2.25;73.26;101725.78;5070686;28;20243;-70
2022/03/04 10:50:17;;;;;;;28.43;17.47;;;;;;;2.27;73.21;101723.13;5070179;28;20215;-70
2022/03/04 10:52:57;;;;;;;31.50;18.33;;;;;;;2.33;73.12;101721.28;5070992;28;20205;-70
2022/03/04 10:55:30;;;;;;;28.13;16.90;;;;;;;2.39;73.25;101718.56;5069695;28;20211;-70
2022/03/04 10:57:56;;;;;;;29.10;16.97;;;;;;;2.45;73.20;101709.75;5070854;28;20267;-68
2022/03/04 11:00:28;;;;;;;31.13;17.73;;;;;;;2.52;74.01;101708.75;5070706;28;20259;-70
2022/03/04 11:02:55;;;;;;;31.20;18.53;;;;;;;2.59;73.81;101714.81;5068973;28;20232;-70
2022/03/04 11:05:22;;;;;;;28.10;16.90;;;;;;;2.68;73.02;101720.84;5070348;28;20736;-68
2022/03/04 11:07:49;;;;;;;29.37;16.93;;;;;;;2.74;73.76;101710.22;5067940;28;20220;-70
2022/03/04 11:10:18;;;;;;;28.57;17.07;;;;;;;2.78;72.87;101708.41;5070524;28;20204;-72
2022/03/04 11:12:46;;;;;;;28.67;17.37;;;;;;;2.83;73.51;101710.97;5070622;28;20201;-70
2022/03/04 11:15:14;;;;;;;31.50;18.07;;;;;;;2.88;73.01;101710.00;5069819;28;20204;-69